York, PA (17406)

5:32 PM EDT on September 01, 2014 (GMT -0400)
Highmount (W3PNZ) | Change Station
CLOSE
Current Station
Personal Weather Station
Location: York, PA
Elevation: 720 ft
Nearby Weather Stations

Elev 720 ft 40.03 °N, 76.59 °W | Updated 25 seconds ago

Mostly Cloudy
Mostly Cloudy
84.2 °F
Feels Like 91 °F
N
2.7
Wind Variable Wind from ENE
Gusts 2.7 mph

Today
High -- | Low -- °F
--% Chance of Precip.
Yesterday
High -- | Low -- °F
Precip. -- in
6:34 AM 7:37 PM
Waxing Crescent, 44% visible
Pressure 29.95 in
Visibility 7.0 miles
Clouds Few 3400 ft
Scattered Clouds 4400 ft
Mostly Cloudy 5500 ft
Heat Index 91 °F
Dew Point 73 °F
Humidity 69%
Rainfall 0.00 in
Snow Depth Not available.
UV 2 out of 12
Pollen 6.90 out of 12
Ozone Good
PM2.5 Good
Flu Activity Not available.
METAR KTHV 012053Z AUTO 25006KT 7SM -RA FEW034 SCT044 BKN055 29/24 A2995 RMK AO2 RAB46 SLP141 P0000 60000 T02940239 56014

More Conditions Fewer Conditions

Pressure 29.95 in
Visibility 7.0 miles
Clouds Few 3400 ft
Scattered Clouds 4400 ft
Mostly Cloudy 5500 ft
Heat Index 91 °F
Dew Point 73 °F
Humidity 69%
Rainfall 0.00 in
Snow Depth Not available.
UV 2 out of 12
Pollen 6.90 out of 12
Ozone Good
PM2.5 Good
Flu Activity Not available.
METAR KTHV 012053Z AUTO 25006KT 7SM -RA FEW034 SCT044 BKN055 29/24 A2995 RMK AO2 RAB46 SLP141 P0000 60000 T02940239 56014

More Conditions Fewer Conditions

10-Day Weather Forecast

Almanac

Astronomy

Sep. 01, 2014 Rise Set
Actual Time 6:34 AM EDT 7:37 PM EDT
Civil Twilight 6:06 AM EDT 8:05 PM EDT
Nautical Twilight 5:33 AM EDT 8:38 PM EDT
Astronomical Twilight 4:58 AM EDT 9:13 PM EDT
Moon 1:17 PM EDT 11:37 PM EDT
Length of Visible Light 13h 59m
Length of Day
13h 03m
Tomorrow will be 2m 32s shorter.
Waxing Crescent, 44% of the Moon is Illuminated
Today
Waxing Crescent
Sep 2
First Quarter
Sep 8
Full
Sep 15
Last Quarter
Sep 24
New

Today's Extremes

State Highs State Lows

Community

WunderPhotos

Upload Photos

1,749,416 photos uploaded!

WunderBlogs® & News

Nearby

Air Quality

  Air Quality AQ Index Pollutant
Yesterday Moderate
PM2.5
Yesterday Good
OZONE
Current Good
PM2.5
Current Good
OZONE
Monday Moderate
PM2.5
Monday Moderate
OZONE
Tuesday Moderate
PM2.5
Tuesday Good
OZONE
Wednesday Good
PM2.5
Wednesday Good
OZONE

Snow Depth

Station Depth Elevation
No new snow has been reported.

Earthquake Activity

City Distance Mag. Time & Date
No recent earthquake activity has been reported nearby.
Minimum magnitude displayed is 2.5.

Coastal Water Temperatures

Place Temperature
No Stations Reporting

Nearby Weather Stations